createdAt,value
2018-06-25T00:00:08.448Z,50.10
2018-06-25T00:01:10.704Z,50.20
2018-06-25T00:02:13.000Z,50.20
2018-06-25T00:03:15.251Z,50.20
2018-06-25T00:04:17.499Z,50.20
2018-06-25T00:05:19.735Z,50.20
2018-06-25T00:06:22.003Z,50.30
2018-06-25T00:07:24.283Z,50.40
2018-06-25T00:08:26.587Z,50.40
2018-06-25T00:09:28.843Z,50.40
2018-06-25T00:10:31.082Z,50.20
2018-06-25T00:12:35.601Z,50.30
2018-06-25T00:13:37.862Z,50.30
2018-06-25T00:14:40.131Z,50.40
2018-06-25T00:15:42.369Z,50.40
2018-06-25T00:16:44.586Z,50.60
2018-06-25T00:17:46.808Z,50.50
2018-06-25T00:18:49.026Z,50.40
2018-06-25T00:19:51.287Z,50.40
2018-06-25T00:20:53.546Z,50.40
2018-06-25T00:21:55.794Z,50.30
2018-06-25T00:22:58.024Z,50.40
2018-06-25T00:24:00.254Z,50.40
2018-06-25T00:25:02.512Z,50.40
2018-06-25T00:26:04.766Z,50.50
2018-06-25T00:27:06.994Z,50.50
2018-06-25T00:28:09.271Z,50.60
2018-06-25T00:29:11.518Z,50.40
2018-06-25T00:30:13.774Z,50.50
2018-06-25T00:31:16.020Z,50.50
2018-06-25T00:32:18.254Z,50.50
2018-06-25T00:34:22.711Z,50.70
2018-06-25T00:35:24.945Z,50.80
2018-06-25T00:36:27.194Z,50.80
2018-06-25T00:37:30.087Z,50.70
2018-06-25T00:38:32.304Z,50.70
2018-06-25T00:39:34.503Z,51.50
2018-06-25T00:40:36.754Z,50.80
2018-06-25T00:41:39.008Z,50.80
2018-06-25T00:42:41.271Z,51.00
2018-06-25T00:43:43.517Z,50.90
2018-06-25T00:44:45.745Z,50.90
2018-06-25T00:45:48.019Z,50.90
2018-06-25T00:46:50.268Z,50.90
2018-06-25T00:47:52.496Z,50.90
2018-06-25T00:48:54.775Z,50.80
2018-06-25T00:49:56.998Z,50.90
2018-06-25T00:50:59.228Z,50.70
2018-06-25T00:53:03.734Z,51.30
2018-06-25T00:54:05.984Z,51.20
2018-06-25T00:55:08.254Z,51.10
2018-06-25T00:56:10.480Z,51.20
2018-06-25T00:57:12.703Z,51.10
2018-06-25T00:58:14.923Z,51.00
2018-06-25T00:59:28.707Z,50.90
2018-06-25T01:00:30.954Z,50.90
2018-06-25T01:01:33.215Z,50.90
2018-06-25T01:02:35.477Z,50.80
2018-06-25T01:03:37.744Z,50.90
2018-06-25T01:04:40.011Z,51.00
2018-06-25T01:05:42.255Z,51.10
2018-06-25T01:06:45.128Z,51.30
2018-06-25T01:07:47.394Z,51.90
2018-06-25T01:08:49.629Z,51.20
2018-06-25T01:09:51.883Z,51.20
2018-06-25T01:10:54.127Z,51.20
2018-06-25T01:11:56.374Z,51.30
2018-06-25T01:12:58.664Z,51.40
2018-06-25T01:15:03.447Z,51.60
2018-06-25T01:16:05.713Z,51.60
2018-06-25T01:17:08.471Z,51.60
2018-06-25T01:18:10.726Z,51.60
2018-06-25T01:19:12.959Z,51.60
2018-06-25T01:20:15.421Z,51.50
2018-06-25T01:22:20.007Z,51.60
2018-06-25T01:23:22.471Z,51.70
2018-06-25T01:24:24.839Z,51.60
2018-06-25T01:25:27.074Z,51.60
2018-06-25T01:26:29.386Z,51.60
2018-06-25T01:27:31.658Z,51.60
2018-06-25T01:28:33.906Z,51.60
2018-06-25T01:29:37.603Z,51.60
2018-06-25T01:30:39.874Z,51.70
2018-06-25T01:31:42.114Z,51.80
2018-06-25T01:33:46.606Z,51.70
2018-06-25T01:34:48.831Z,51.70
2018-06-25T01:35:51.101Z,51.70
2018-06-25T01:36:53.345Z,51.90
2018-06-25T01:37:55.599Z,51.80
2018-06-25T01:38:57.816Z,51.90
2018-06-25T01:40:00.031Z,51.90
2018-06-25T01:41:02.290Z,52.00
2018-06-25T01:42:04.631Z,52.00
2018-06-25T01:43:07.445Z,52.00
2018-06-25T01:44:09.673Z,52.10
2018-06-25T01:45:11.910Z,52.10
2018-06-25T01:46:14.148Z,52.10
2018-06-25T01:47:16.423Z,52.10
2018-06-25T01:48:18.714Z,52.30
2018-06-25T01:50:23.173Z,52.30
2018-06-25T01:51:25.404Z,52.20
2018-06-25T01:52:27.657Z,52.40
2018-06-25T01:53:29.879Z,52.40
2018-06-25T01:55:34.423Z,52.50
2018-06-25T01:56:36.678Z,52.50
2018-06-25T01:58:41.131Z,52.50
2018-06-25T01:59:43.383Z,52.50
2018-06-25T02:00:45.643Z,52.50
2018-06-25T02:01:47.897Z,52.50
2018-06-25T02:02:50.166Z,52.50
2018-06-25T02:03:52.542Z,52.50
2018-06-25T02:04:54.838Z,52.50
2018-06-25T02:05:57.127Z,52.50
2018-06-25T02:06:59.374Z,52.50
2018-06-25T02:08:01.602Z,52.50
2018-06-25T02:09:06.942Z,52.50
2018-06-25T02:10:09.158Z,52.50
2018-06-25T02:11:11.400Z,52.50
2018-06-25T02:12:13.678Z,52.50
2018-06-25T02:13:15.980Z,52.50
2018-06-25T02:15:20.462Z,52.40
2018-06-25T02:16:22.702Z,52.60
2018-06-25T02:17:24.946Z,52.90
2018-06-25T02:18:27.220Z,53.00
2018-06-25T02:19:29.447Z,52.90
2018-06-25T02:20:31.734Z,53.00
2018-06-25T02:21:34.080Z,53.00
2018-06-25T02:22:36.891Z,53.00
2018-06-25T02:23:39.107Z,53.00
2018-06-25T02:24:41.338Z,53.20
2018-06-25T02:25:43.576Z,53.10
2018-06-25T02:26:45.812Z,53.20
2018-06-25T02:27:48.063Z,53.30
2018-06-25T02:28:50.274Z,53.40
2018-06-25T02:29:52.518Z,53.40
2018-06-25T02:30:54.730Z,53.50
2018-06-25T02:31:56.987Z,53.50
2018-06-25T02:32:59.319Z,53.60
2018-06-25T02:34:01.466Z,53.60
2018-06-25T02:35:03.708Z,53.50
2018-06-25T02:36:05.962Z,53.60
2018-06-25T02:37:08.207Z,53.60
2018-06-25T02:38:10.459Z,53.70
2018-06-25T02:40:14.955Z,53.70
2018-06-25T02:42:19.437Z,53.80
2018-06-25T02:43:21.677Z,53.80
2018-06-25T02:44:23.915Z,53.80
2018-06-25T02:45:26.164Z,53.80
2018-06-25T02:46:28.403Z,53.70
2018-06-25T02:47:30.647Z,53.80
2018-06-25T02:51:13.222Z,53.70
2018-06-25T02:52:15.458Z,53.60
2018-06-25T02:53:17.712Z,53.60
2018-06-25T02:54:19.963Z,53.60
2018-06-25T02:55:22.275Z,53.70
2018-06-25T02:56:24.670Z,53.70
2018-06-25T02:57:26.930Z,53.80
2018-06-25T02:58:29.191Z,53.80
2018-06-25T02:59:31.431Z,53.90
2018-06-25T03:00:33.679Z,53.80
2018-06-25T03:01:36.303Z,53.90
2018-06-25T03:03:40.831Z,54.40
2018-06-25T03:04:43.067Z,53.70
2018-06-25T03:05:45.449Z,53.80
2018-06-25T03:06:47.719Z,54.50
2018-06-25T03:07:50.125Z,53.80
2018-06-25T03:08:52.384Z,53.70
2018-06-25T03:09:54.631Z,53.60
2018-06-25T03:10:56.871Z,53.70
2018-06-25T03:11:59.096Z,53.70
2018-06-25T03:13:01.355Z,53.80
2018-06-25T03:15:05.954Z,54.00
2018-06-25T03:16:08.195Z,53.80
2018-06-25T03:17:10.423Z,53.80
2018-06-25T03:18:12.675Z,54.00
2018-06-25T03:19:14.919Z,53.90
2018-06-25T03:20:17.154Z,53.90
2018-06-25T03:21:19.379Z,54.00
2018-06-25T03:22:21.622Z,54.00
2018-06-25T03:23:23.864Z,54.00
2018-06-25T03:24:26.072Z,54.00
2018-06-25T03:25:28.311Z,53.90
2018-06-25T03:26:30.532Z,53.90
2018-06-25T03:28:34.996Z,53.90
2018-06-25T03:29:37.230Z,54.00
2018-06-25T03:30:39.466Z,53.90
2018-06-25T03:31:41.723Z,54.00
2018-06-25T03:32:43.962Z,54.00
2018-06-25T03:33:46.258Z,54.00
2018-06-25T03:34:48.526Z,54.00
2018-06-25T03:35:50.777Z,54.10
2018-06-25T03:36:53.039Z,54.10
2018-06-25T03:37:55.540Z,54.00
2018-06-25T03:38:57.806Z,54.00
2018-06-25T03:40:00.081Z,54.10
2018-06-25T03:41:02.322Z,54.10
2018-06-25T03:42:04.806Z,54.10
2018-06-25T03:43:07.163Z,54.10
2018-06-25T03:44:09.434Z,54.10
2018-06-25T03:45:11.670Z,54.20
2018-06-25T03:46:13.931Z,54.20
2018-06-25T03:47:16.206Z,54.20
2018-06-25T03:48:18.501Z,54.20
2018-06-25T03:49:20.771Z,54.20
2018-06-25T03:50:23.019Z,54.30
2018-06-25T03:52:27.651Z,54.40
2018-06-25T03:53:29.892Z,54.50
2018-06-25T03:54:32.153Z,54.40
2018-06-25T03:55:34.447Z,54.50
2018-06-25T03:56:36.734Z,54.40
2018-06-25T03:57:38.976Z,54.40
2018-06-25T03:58:41.260Z,54.50
2018-06-25T03:59:43.567Z,54.40
2018-06-25T04:00:45.806Z,54.60
2018-06-25T04:01:48.100Z,54.50
2018-06-25T04:02:50.354Z,54.70
2018-06-25T04:03:52.622Z,54.60
2018-06-25T04:04:54.942Z,54.70
2018-06-25T04:05:57.188Z,54.60
2018-06-25T04:06:59.466Z,54.60
2018-06-25T04:08:01.744Z,54.60
2018-06-25T04:09:06.911Z,54.60
2018-06-25T04:10:09.218Z,54.60
2018-06-25T04:11:11.580Z,54.70
2018-06-25T04:12:13.842Z,55.10
2018-06-25T04:13:16.085Z,55.20
2018-06-25T04:14:19.023Z,54.90
2018-06-25T04:15:21.316Z,54.70
2018-06-25T04:16:23.572Z,54.70
2018-06-25T04:17:25.845Z,54.70
2018-06-25T04:18:28.095Z,54.70
2018-06-25T04:19:30.362Z,54.80
2018-06-25T04:20:32.631Z,54.80
2018-06-25T04:21:36.311Z,54.80
2018-06-25T04:22:38.597Z,54.80
2018-06-25T04:23:40.846Z,54.80
2018-06-25T04:24:43.097Z,54.90
2018-06-25T04:25:45.452Z,54.90
2018-06-25T04:26:47.722Z,55.00
2018-06-25T04:27:50.035Z,55.00
2018-06-25T04:28:52.327Z,55.00
2018-06-25T04:29:54.599Z,54.80
2018-06-25T04:30:56.866Z,54.90
2018-06-25T04:31:59.113Z,54.90
2018-06-25T04:33:01.336Z,55.00
2018-06-25T04:34:03.586Z,54.80
2018-06-25T04:35:05.863Z,54.70
2018-06-25T04:36:08.122Z,54.70
2018-06-25T04:37:10.403Z,54.70
2018-06-25T04:38:12.639Z,54.70
2018-06-25T04:39:14.882Z,54.70
2018-06-25T04:40:17.231Z,54.80
2018-06-25T04:41:19.485Z,54.80
2018-06-25T04:42:21.732Z,54.80
2018-06-25T04:43:23.966Z,54.80
2018-06-25T04:44:26.202Z,54.70
2018-06-25T04:45:28.466Z,54.80
2018-06-25T04:46:30.754Z,54.80
2018-06-25T04:47:33.684Z,54.70
2018-06-25T04:48:35.970Z,54.70
2018-06-25T04:49:38.252Z,55.10
2018-06-25T04:50:40.531Z,55.40
2018-06-25T04:51:42.770Z,55.20
2018-06-25T04:52:45.070Z,55.20
2018-06-25T04:53:47.335Z,55.00
2018-06-25T04:54:49.590Z,54.80
2018-06-25T04:55:51.872Z,55.20
2018-06-25T04:56:54.222Z,55.20
2018-06-25T04:57:56.470Z,55.40
2018-06-25T04:58:58.734Z,55.50
2018-06-25T05:00:01.195Z,55.30
2018-06-25T05:01:03.592Z,55.00
2018-06-25T05:02:05.894Z,54.80
2018-06-25T05:03:08.207Z,55.10
2018-06-25T05:04:10.583Z,55.00
2018-06-25T05:05:12.837Z,55.40
2018-06-25T05:06:15.130Z,55.20
2018-06-25T05:07:17.408Z,55.20
2018-06-25T05:08:19.676Z,55.10
2018-06-25T05:09:21.922Z,55.00
2018-06-25T05:10:24.219Z,55.10
2018-06-25T05:11:26.467Z,56.00
2018-06-25T05:12:28.717Z,55.20
2018-06-25T05:14:33.287Z,55.00
2018-06-25T05:15:35.572Z,54.90
2018-06-25T05:16:37.815Z,55.00
2018-06-25T05:17:40.111Z,54.80
2018-06-25T05:18:42.425Z,54.70
2018-06-25T05:19:44.681Z,55.00
2018-06-25T05:20:46.938Z,55.00
2018-06-25T05:21:49.175Z,55.10
2018-06-25T05:22:51.426Z,55.10
2018-06-25T05:24:56.014Z,55.00
2018-06-25T05:25:58.288Z,55.10
2018-06-25T05:27:00.561Z,55.10
2018-06-25T05:29:05.832Z,55.30
2018-06-25T05:30:08.070Z,55.00
2018-06-25T05:31:10.327Z,54.90
2018-06-25T05:33:14.829Z,55.10
2018-06-25T05:34:17.074Z,55.10
2018-06-25T05:35:19.344Z,54.90
2018-06-25T05:36:21.679Z,54.90
2018-06-25T05:37:23.978Z,55.00
2018-06-25T05:38:26.243Z,55.10
2018-06-25T05:40:30.779Z,55.20
2018-06-25T05:41:33.078Z,55.10
2018-06-25T05:42:35.355Z,55.10
2018-06-25T05:43:37.622Z,55.20
2018-06-25T05:44:39.860Z,55.20
2018-06-25T05:45:42.138Z,55.40
2018-06-25T05:46:44.473Z,55.50
2018-06-25T05:47:46.793Z,55.10
2018-06-25T05:48:49.060Z,55.40
2018-06-25T05:49:51.398Z,55.20
2018-06-25T05:50:53.914Z,55.30
2018-06-25T05:51:56.199Z,55.30
2018-06-25T05:52:58.498Z,55.30
2018-06-25T05:54:00.746Z,55.20
2018-06-25T05:56:05.373Z,55.20
2018-06-25T05:57:07.657Z,55.20
2018-06-25T05:58:09.902Z,55.10
2018-06-25T06:00:14.545Z,55.10
2018-06-25T06:01:16.848Z,55.20
2018-06-25T06:02:19.154Z,55.20
2018-06-25T06:03:21.427Z,55.10
2018-06-25T06:04:23.740Z,55.00
2018-06-25T06:05:25.999Z,55.00
2018-06-25T06:06:28.254Z,54.80
2018-06-25T06:07:30.560Z,55.20
2018-06-25T06:08:32.806Z,55.20
2018-06-25T06:09:35.058Z,55.40
2018-06-25T06:10:37.319Z,55.40
2018-06-25T06:12:42.206Z,55.20
2018-06-25T06:13:44.495Z,55.10
2018-06-25T06:14:46.791Z,55.10
2018-06-25T06:15:49.045Z,55.00
2018-06-25T06:16:51.779Z,55.10
2018-06-25T06:17:54.057Z,55.10
2018-06-25T06:18:56.287Z,55.10
2018-06-25T06:19:58.575Z,55.30
2018-06-25T06:22:03.379Z,55.20
2018-06-25T06:23:05.642Z,55.20
2018-06-25T06:24:07.884Z,55.40
2018-06-25T06:25:10.106Z,55.40
2018-06-25T06:26:12.340Z,55.80
2018-06-25T06:27:14.587Z,56.30
2018-06-25T06:28:16.826Z,56.00
2018-06-25T06:29:19.146Z,56.00
2018-06-25T06:30:21.386Z,55.70
2018-06-25T06:31:25.031Z,55.60
2018-06-25T06:32:27.319Z,55.60
2018-06-25T06:33:29.518Z,55.60
2018-06-25T06:34:31.838Z,55.50
2018-06-25T06:35:34.070Z,55.50
2018-06-25T06:36:36.279Z,55.40
2018-06-25T06:37:38.527Z,55.50
2018-06-25T06:38:40.826Z,55.50
2018-06-25T06:39:43.041Z,55.50
2018-06-25T06:40:45.259Z,55.50
2018-06-25T06:41:47.490Z,55.50
2018-06-25T06:42:49.722Z,55.70
2018-06-25T06:43:51.946Z,55.50
2018-06-25T06:44:54.203Z,55.50
2018-06-25T06:45:56.422Z,55.60
2018-06-25T06:46:58.762Z,55.70
2018-06-25T06:49:04.056Z,55.60
2018-06-25T06:50:06.325Z,56.40
2018-06-25T06:51:08.570Z,55.80
2018-06-25T06:52:10.807Z,55.80
2018-06-25T06:53:13.038Z,55.80
2018-06-25T06:54:15.347Z,55.70
2018-06-25T06:55:17.618Z,55.70
2018-06-25T06:56:19.862Z,55.80
2018-06-25T06:57:22.135Z,55.80
2018-06-25T06:58:24.395Z,56.00
2018-06-25T06:59:26.651Z,56.30
2018-06-25T07:00:28.899Z,56.30
2018-06-25T07:01:31.586Z,56.40
2018-06-25T07:02:33.816Z,56.10
2018-06-25T07:03:36.048Z,55.90
2018-06-25T07:05:40.878Z,57.00
2018-06-25T07:06:43.123Z,56.70
2018-06-25T07:07:45.359Z,56.90
2018-06-25T07:08:47.590Z,56.90
2018-06-25T07:09:49.816Z,56.60
2018-06-25T07:11:54.345Z,57.50
2018-06-25T07:12:56.798Z,56.40
2018-06-25T07:13:59.060Z,56.40
2018-06-25T07:15:01.282Z,56.20
2018-06-25T07:16:03.590Z,55.80
2018-06-25T07:17:05.878Z,55.70
2018-06-25T07:18:08.112Z,55.80
2018-06-25T07:20:12.572Z,55.60
2018-06-25T07:21:14.818Z,56.40
2018-06-25T07:22:17.050Z,56.80
2018-06-25T07:23:19.304Z,56.40
2018-06-25T07:25:23.758Z,55.70
2018-06-25T07:26:25.979Z,55.60
2018-06-25T07:27:28.227Z,55.70
2018-06-25T07:28:30.485Z,55.50
2018-06-25T07:30:34.993Z,55.40
2018-06-25T07:31:37.318Z,55.50
2018-06-25T07:32:39.559Z,55.30
2018-06-25T07:33:41.775Z,55.50
2018-06-25T07:34:44.010Z,55.30
2018-06-25T07:35:46.263Z,55.40
2018-06-25T07:36:48.506Z,55.30
2018-06-25T07:37:50.798Z,55.40
2018-06-25T07:38:53.059Z,55.30
2018-06-25T07:39:55.290Z,55.30
2018-06-25T07:40:57.531Z,55.40
2018-06-25T07:41:59.826Z,55.50
2018-06-25T07:43:02.116Z,55.60
2018-06-25T07:44:04.399Z,55.60
2018-06-25T07:45:06.634Z,55.50
2018-06-25T07:46:08.904Z,55.50
2018-06-25T07:47:11.137Z,55.60
2018-06-25T07:48:13.391Z,55.60
2018-06-25T07:49:15.666Z,55.70
2018-06-25T07:50:17.915Z,55.80
2018-06-25T07:51:20.141Z,55.80
2018-06-25T07:52:22.362Z,55.80
2018-06-25T07:54:26.886Z,55.60
2018-06-25T07:55:29.174Z,55.40
2018-06-25T07:56:32.020Z,55.50
2018-06-25T07:57:34.278Z,55.50
2018-06-25T07:58:36.517Z,55.50
2018-06-25T07:59:38.724Z,55.60
2018-06-25T08:00:40.938Z,55.70
2018-06-25T08:01:43.171Z,55.50
2018-06-25T08:07:05.323Z,55.20
2018-06-25T08:08:07.583Z,55.20
2018-06-25T08:09:10.538Z,55.40
2018-06-25T08:10:12.809Z,55.60
2018-06-25T08:11:15.079Z,55.60
2018-06-25T08:12:17.360Z,55.80
2018-06-25T08:13:19.622Z,55.80
2018-06-25T08:15:30.834Z,55.90
2018-06-25T08:16:33.449Z,55.90
2018-06-25T08:17:35.627Z,56.00
2018-06-25T08:18:37.858Z,56.10
2018-06-25T08:19:40.103Z,56.80
2018-06-25T08:20:42.399Z,56.10
2018-06-25T08:21:44.654Z,56.60
2018-06-25T08:22:46.894Z,56.70
2018-06-25T08:23:49.154Z,56.50
2018-06-25T08:24:51.378Z,57.10
2018-06-25T08:25:53.628Z,56.10
2018-06-25T08:27:58.161Z,56.60
2018-06-25T08:29:00.415Z,56.00
2018-06-25T08:31:04.911Z,56.10
2018-06-25T08:32:07.947Z,56.00
2018-06-25T08:33:10.186Z,56.20
2018-06-25T08:34:12.416Z,56.10
2018-06-25T08:35:14.735Z,56.10
2018-06-25T08:36:17.094Z,56.30
2018-06-25T08:37:19.310Z,56.50
2018-06-25T08:38:21.541Z,56.10
2018-06-25T08:39:23.727Z,56.10
2018-06-25T08:41:28.214Z,56.00
2018-06-25T08:42:30.446Z,56.00
2018-06-25T08:43:32.667Z,56.00
2018-06-25T08:44:34.913Z,55.80
2018-06-25T08:45:37.147Z,55.70
2018-06-25T08:46:39.535Z,55.80
2018-06-25T08:47:42.006Z,55.80
2018-06-25T08:48:44.237Z,56.00
2018-06-25T08:49:47.040Z,56.10
2018-06-25T08:51:51.619Z,56.20
2018-06-25T08:52:53.813Z,56.40
2018-06-25T08:53:56.178Z,56.30
2018-06-25T08:56:00.707Z,56.40
2018-06-25T08:57:02.987Z,56.40
2018-06-25T08:58:05.256Z,56.20
2018-06-25T08:59:07.519Z,56.40
2018-06-25T09:00:09.696Z,56.40
2018-06-25T09:01:11.939Z,56.40
2018-06-25T09:02:14.182Z,56.40
2018-06-25T09:03:16.445Z,56.40
2018-06-25T09:04:18.624Z,56.50
2018-06-25T09:05:20.910Z,56.00
2018-06-25T09:06:23.143Z,56.00
2018-06-25T09:07:25.347Z,56.70
2018-06-25T09:09:53.431Z,56.50
2018-06-25T09:10:55.604Z,56.90
2018-06-25T09:11:57.818Z,57.10
2018-06-25T09:13:00.078Z,56.50
2018-06-25T09:14:02.718Z,56.40
2018-06-25T09:15:04.958Z,56.20
2018-06-25T09:16:07.291Z,56.10
2018-06-25T09:17:09.551Z,56.20
2018-06-25T09:18:11.801Z,56.10
2018-06-25T09:19:14.031Z,56.40
2018-06-25T09:20:16.321Z,56.00
2018-06-25T09:21:18.551Z,56.10
2018-06-25T09:22:20.770Z,55.50
2018-06-25T09:23:23.022Z,55.00
2018-06-25T09:24:25.270Z,54.60
2018-06-25T09:26:29.816Z,54.90
2018-06-25T09:27:37.939Z,54.10
2018-06-25T09:28:40.126Z,54.70
2018-06-25T09:29:42.331Z,54.50
2018-06-25T09:30:44.578Z,54.40
2018-06-25T09:31:46.814Z,54.70
2018-06-25T09:33:51.323Z,54.40
2018-06-25T09:34:53.599Z,54.30
2018-06-25T09:35:55.894Z,54.60
2018-06-25T09:39:49.242Z,54.00
2018-06-25T09:40:52.370Z,53.80
2018-06-25T09:41:54.551Z,53.70
2018-06-25T09:42:56.777Z,53.80
2018-06-25T09:43:58.990Z,53.70
2018-06-25T09:45:01.211Z,53.90
2018-06-25T09:46:03.858Z,53.80
2018-06-25T09:47:06.120Z,53.50
2018-06-25T09:48:08.324Z,53.30
2018-06-25T09:49:10.540Z,53.20
2018-06-25T09:50:12.790Z,53.30
2018-06-25T09:51:14.995Z,52.80
2018-06-25T09:52:17.171Z,53.00
2018-06-25T09:53:19.390Z,52.90
2018-06-25T09:54:21.626Z,53.00
2018-06-25T09:55:23.790Z,52.80
2018-06-25T09:56:25.998Z,52.60
2018-06-25T09:57:28.211Z,52.40
2018-06-25T09:58:30.474Z,52.40
2018-06-25T09:59:32.674Z,52.40
2018-06-25T10:00:40.511Z,52.00
2018-06-25T10:01:42.822Z,51.70
2018-06-25T10:02:45.043Z,51.70
2018-06-25T10:03:47.274Z,51.80
2018-06-25T10:04:49.507Z,52.00
2018-06-25T10:05:51.701Z,52.20
2018-06-25T10:07:56.219Z,52.10
2018-06-25T10:08:58.450Z,52.10
2018-06-25T10:10:00.634Z,52.70
2018-06-25T10:11:02.826Z,52.80
2018-06-25T10:12:05.054Z,52.70
2018-06-25T10:13:07.265Z,52.80
2018-06-25T10:14:09.535Z,53.00
2018-06-25T10:15:11.751Z,53.70
2018-06-25T10:16:13.937Z,53.90
2018-06-25T10:17:16.150Z,53.80
2018-06-25T10:18:18.393Z,53.90
2018-06-25T10:19:20.606Z,53.80
2018-06-25T10:20:22.833Z,53.90
2018-06-25T10:21:25.192Z,53.90
2018-06-25T10:22:27.422Z,53.80
2018-06-25T10:24:31.936Z,53.70
2018-06-25T10:25:34.142Z,53.60
2018-06-25T10:26:36.347Z,53.70
2018-06-25T10:27:38.609Z,53.70
2018-06-25T10:29:43.078Z,54.10
2018-06-25T10:30:45.291Z,54.10
2018-06-25T10:31:47.541Z,53.70
2018-06-25T10:32:49.794Z,53.40
2018-06-25T10:33:51.972Z,54.00
2018-06-25T10:34:54.198Z,53.80
2018-06-25T10:35:56.402Z,53.20
2018-06-25T10:36:58.639Z,53.00
2018-06-25T10:39:05.219Z,53.20
2018-06-25T10:41:10.187Z,52.10
2018-06-25T10:42:12.505Z,52.40
2018-06-25T10:43:14.590Z,52.40
2018-06-25T10:44:16.782Z,52.10
2018-06-25T10:45:18.990Z,51.70
2018-06-25T10:46:21.177Z,52.00
2018-06-25T10:47:23.444Z,52.00
2018-06-25T10:48:25.721Z,51.50
2018-06-25T10:49:27.973Z,50.40
2018-06-25T10:50:30.173Z,50.50
2018-06-25T10:51:32.395Z,49.20
2018-06-25T10:52:34.621Z,49.50
2018-06-25T10:53:36.808Z,49.40
2018-06-25T10:54:39.000Z,49.50
2018-06-25T10:55:41.202Z,50.30
2018-06-25T10:56:43.417Z,49.70
2018-06-25T10:57:45.653Z,49.90
2018-06-25T10:58:47.839Z,49.90
2018-06-25T10:59:50.119Z,50.10
2018-06-25T11:00:52.296Z,50.60
2018-06-25T11:01:54.514Z,50.00
2018-06-25T11:02:56.719Z,49.70
2018-06-25T11:03:58.986Z,50.60
2018-06-25T11:05:01.178Z,50.00
2018-06-25T11:06:03.422Z,50.50
2018-06-25T11:07:05.635Z,50.70
2018-06-25T11:09:10.694Z,50.30
2018-06-25T11:10:12.911Z,50.40
2018-06-25T11:11:15.101Z,50.40
2018-06-25T11:12:17.302Z,50.40
2018-06-25T11:13:19.483Z,50.40
2018-06-25T11:15:23.935Z,50.50
2018-06-25T11:16:26.160Z,50.20
2018-06-25T11:17:28.378Z,50.50
2018-06-25T11:18:30.567Z,50.50
2018-06-25T11:19:32.762Z,50.50
2018-06-25T11:20:34.963Z,49.90
2018-06-25T11:21:37.174Z,49.40
2018-06-25T11:22:39.418Z,49.20
2018-06-25T11:23:41.617Z,49.10
2018-06-25T11:24:43.810Z,48.80
2018-06-25T11:25:46.070Z,48.80
2018-06-25T11:26:48.339Z,48.80
2018-06-25T11:27:50.502Z,48.40
2018-06-25T11:28:52.637Z,48.40
2018-06-25T11:29:54.845Z,48.50
2018-06-25T11:31:59.280Z,48.30
2018-06-25T11:33:01.519Z,47.50
2018-06-25T11:34:03.710Z,46.80
2018-06-25T11:35:05.904Z,47.60
2018-06-25T11:36:08.107Z,47.70
2018-06-25T11:37:10.358Z,47.70
2018-06-25T11:38:12.659Z,47.40
2018-06-25T11:39:14.872Z,47.60
2018-06-25T11:40:17.125Z,47.40
2018-06-25T11:41:19.329Z,47.70
2018-06-25T11:42:21.545Z,47.80
2018-06-25T11:43:23.752Z,47.80
2018-06-25T11:44:26.012Z,48.30
2018-06-25T11:45:28.327Z,47.50
2018-06-25T11:46:30.582Z,47.80
2018-06-25T11:47:32.794Z,46.60
2018-06-25T11:48:35.043Z,47.50
2018-06-25T11:49:37.262Z,47.10
2018-06-25T11:50:39.526Z,46.80
2018-06-25T11:51:41.778Z,46.80
2018-06-25T11:52:43.988Z,46.80
2018-06-25T11:53:46.226Z,46.80
2018-06-25T11:54:48.482Z,46.90
2018-06-25T11:55:50.714Z,45.90
2018-06-25T11:56:53.003Z,45.50
2018-06-25T11:57:55.240Z,44.40
2018-06-25T11:58:57.508Z,43.80
2018-06-25T11:59:59.802Z,42.80
2018-06-25T12:01:01.993Z,42.70
2018-06-25T12:03:06.662Z,43.50
2018-06-25T12:04:08.847Z,42.80
2018-06-25T12:05:11.118Z,42.90
2018-06-25T12:06:13.388Z,42.00
2018-06-25T12:07:15.682Z,41.60
2018-06-25T12:08:17.929Z,42.40
2018-06-25T12:10:22.543Z,42.70
2018-06-25T12:11:24.812Z,42.60
2018-06-25T12:12:27.781Z,42.70
2018-06-25T12:13:30.056Z,43.40
2018-06-25T12:14:32.334Z,42.70
2018-06-25T12:15:34.623Z,43.00
2018-06-25T12:16:36.967Z,42.90
2018-06-25T12:17:39.246Z,41.90
2018-06-25T12:18:41.538Z,42.00
2018-06-25T12:20:46.062Z,41.70
2018-06-25T12:21:48.333Z,41.90
2018-06-25T12:22:50.626Z,42.10
2018-06-25T12:23:52.919Z,42.20
2018-06-25T12:24:55.213Z,42.70
2018-06-25T12:25:57.574Z,42.80
2018-06-25T12:26:59.866Z,42.60
2018-06-25T12:28:02.126Z,42.70
2018-06-25T12:29:04.446Z,42.50
2018-06-25T12:30:06.775Z,42.50
2018-06-25T12:31:09.026Z,43.70
2018-06-25T12:32:11.320Z,44.10
2018-06-25T12:33:13.565Z,44.00
2018-06-25T12:34:15.809Z,43.40
2018-06-25T12:35:18.099Z,43.30
2018-06-25T12:36:20.362Z,43.40
2018-06-25T12:37:22.611Z,43.60
2018-06-25T12:38:24.858Z,43.80
2018-06-25T12:39:27.751Z,43.40
2018-06-25T12:40:30.005Z,42.90
2018-06-25T12:41:32.337Z,43.30
2018-06-25T12:42:34.535Z,43.50
2018-06-25T12:43:36.898Z,43.80
2018-06-25T12:44:39.159Z,43.60
2018-06-25T12:45:41.419Z,43.20
2018-06-25T12:47:45.943Z,42.80
2018-06-25T12:48:48.186Z,42.90
2018-06-25T12:49:50.431Z,41.60
2018-06-25T12:50:52.765Z,41.00
2018-06-25T12:51:55.023Z,40.90
2018-06-25T12:52:57.326Z,40.40
2018-06-25T12:55:01.985Z,39.80
2018-06-25T12:56:04.295Z,39.30
2018-06-25T12:57:06.605Z,39.60
2018-06-25T12:58:08.794Z,39.80
2018-06-25T12:59:11.054Z,39.60
2018-06-25T13:00:13.400Z,39.50
2018-06-25T13:01:15.646Z,39.20
2018-06-25T13:02:17.913Z,39.50
2018-06-25T13:03:20.166Z,39.10
2018-06-25T13:04:22.466Z,38.70
2018-06-25T13:05:24.738Z,39.00
2018-06-25T13:06:26.987Z,38.60
2018-06-25T13:07:29.238Z,38.70
2018-06-25T13:08:31.555Z,38.80
2018-06-25T13:09:33.826Z,39.20
2018-06-25T13:10:36.156Z,39.40
2018-06-25T13:11:38.442Z,39.50
2018-06-25T13:12:40.734Z,38.20
2018-06-25T13:13:42.976Z,38.10
2018-06-25T13:14:45.222Z,38.00
2018-06-25T13:15:47.474Z,38.40
2018-06-25T13:17:52.058Z,38.30
2018-06-25T13:18:54.309Z,38.60
2018-06-25T13:19:57.266Z,39.20
2018-06-25T13:20:59.530Z,39.30
2018-06-25T13:22:01.810Z,39.20
2018-06-25T13:23:04.083Z,39.40
2018-06-25T13:24:06.408Z,39.80
2018-06-25T13:25:08.678Z,39.70
2018-06-25T13:26:10.974Z,39.60
2018-06-25T13:27:13.195Z,40.20
2018-06-25T13:28:15.490Z,39.90
2018-06-25T13:29:17.728Z,39.70
2018-06-25T13:30:20.003Z,40.50
2018-06-25T13:31:22.271Z,40.10
2018-06-25T13:32:24.534Z,39.50
2018-06-25T13:33:26.811Z,39.30
2018-06-25T13:34:29.078Z,38.40
2018-06-25T13:35:31.375Z,38.20
2018-06-25T13:36:33.814Z,38.10
2018-06-25T13:37:36.056Z,38.00
2018-06-25T13:38:38.290Z,38.10
2018-06-25T13:39:40.527Z,37.70
2018-06-25T13:40:42.792Z,37.80
2018-06-25T13:41:45.059Z,36.70
2018-06-25T13:42:47.307Z,37.00
2018-06-25T13:43:49.561Z,37.00
2018-06-25T13:44:51.815Z,37.30
2018-06-25T13:45:54.235Z,37.50
2018-06-25T13:46:56.475Z,37.50
2018-06-25T13:47:58.749Z,37.60
2018-06-25T13:49:01.095Z,37.70
2018-06-25T13:50:03.856Z,38.10
2018-06-25T13:51:06.163Z,38.40
2018-06-25T13:52:08.431Z,38.00
2018-06-25T13:53:10.646Z,37.60
2018-06-25T13:54:12.925Z,37.10
2018-06-25T13:55:15.202Z,37.10
2018-06-25T13:56:17.451Z,37.10
2018-06-25T13:57:19.739Z,36.10
2018-06-25T13:58:22.035Z,37.20
2018-06-25T13:59:24.493Z,37.40
2018-06-25T14:00:26.771Z,37.70
2018-06-25T14:01:29.079Z,37.80
2018-06-25T14:02:31.319Z,37.70
2018-06-25T14:04:36.290Z,38.20
2018-06-25T14:05:38.552Z,37.70
2018-06-25T14:06:40.825Z,37.50
2018-06-25T14:07:43.110Z,37.80
2018-06-25T14:08:45.474Z,37.70
2018-06-25T14:09:47.789Z,37.80
2018-06-25T14:10:50.055Z,37.60
2018-06-25T14:11:52.354Z,38.10
2018-06-25T14:12:54.722Z,38.20
2018-06-25T14:13:56.999Z,38.20
2018-06-25T14:16:01.681Z,38.20
2018-06-25T14:17:04.165Z,37.80
2018-06-25T14:18:06.807Z,37.80
2018-06-25T14:19:09.066Z,37.80
2018-06-25T14:20:11.326Z,38.00
2018-06-25T14:21:13.600Z,38.20
2018-06-25T14:22:16.019Z,36.80
2018-06-25T14:23:18.295Z,37.60
2018-06-25T14:24:26.242Z,36.20
2018-06-25T14:25:31.042Z,36.70
2018-06-25T14:26:38.966Z,36.90
2018-06-25T14:27:46.887Z,37.10
2018-06-25T14:28:49.146Z,36.70
2018-06-25T14:29:51.426Z,36.90
2018-06-25T14:30:59.342Z,37.00
2018-06-25T14:33:09.578Z,35.20